Time;durP1;ratioP1;P1;durP2;ratioP2;P2;SDS_P1;SDS_P2;PMS_P1;PMS_P2;Temp;Humidity;BMP_temperature;BMP_pressure;BME280_temperature;BME280_humidity;BME280_pressure;Samples;Min_cycle;Max_cycle;Signal;HPM_P1;HPM_P2
2023/07/07 00:00:51;;;;;;;6.13;5.30;;;21.20;38.60;;;;;;5070826;28;20411;-57
2023/07/07 00:03:16;;;;;;;5.55;4.55;;;21.10;38.80;;;;;;5072062;28;20415;-53
2023/07/07 00:05:43;;;;;;;6.30;4.60;;;21.10;38.80;;;;;;5072182;28;20180;-56
2023/07/07 00:08:11;;;;;;;6.20;4.07;;;21.00;38.70;;;;;;5072112;28;20430;-55
2023/07/07 00:10:38;;;;;;;5.43;4.57;;;21.00;38.90;;;;;;5071891;28;20268;-55
2023/07/07 00:13:04;;;;;;;5.40;4.10;;;21.00;38.80;;;;;;5072007;28;20426;-55
2023/07/07 00:15:30;;;;;;;8.98;5.35;;;21.00;38.70;;;;;;5072403;28;20945;-57
2023/07/07 00:17:55;;;;;;;6.47;4.83;;;21.00;39.00;;;;;;5071918;28;20169;-57
2023/07/07 00:20:21;;;;;;;5.53;4.67;;;21.00;39.00;;;;;;5071804;28;20259;-54
2023/07/07 00:22:47;;;;;;;6.60;4.53;;;21.00;39.00;;;;;;5072139;28;20207;-56
2023/07/07 00:25:13;;;;;;;5.90;4.20;;;21.00;38.40;;;;;;5071989;28;20180;-54
2023/07/07 00:27:39;;;;;;;6.23;4.40;;;21.00;38.30;;;;;;5072049;28;20413;-56
2023/07/07 00:30:06;;;;;;;4.80;4.30;;;21.00;38.60;;;;;;5072050;28;20795;-58
2023/07/07 00:32:32;;;;;;;5.93;4.47;;;21.00;38.90;;;;;;5071860;28;20406;-54
2023/07/07 00:34:58;;;;;;;6.00;5.03;;;20.90;38.90;;;;;;5071938;28;20215;-56
2023/07/07 00:37:24;;;;;;;5.27;4.60;;;20.90;39.00;;;;;;5071874;28;20180;-57
2023/07/07 00:39:50;;;;;;;8.70;4.50;;;20.90;38.90;;;;;;5071616;28;20515;-54
2023/07/07 00:42:16;;;;;;;12.33;5.60;;;20.90;38.90;;;;;;5071953;28;20169;-55
2023/07/07 00:45:12;;;;;;;11.70;4.60;;;20.90;38.90;;;;;;5071944;28;20419;-56
2023/07/07 00:47:43;;;;;;;5.50;4.32;;;20.90;38.60;;;;;;5074414;28;20180;-57
2023/07/07 00:50:12;;;;;;;7.20;4.28;;;20.90;38.40;;;;;;5075571;28;20189;-54
2023/07/07 00:52:41;;;;;;;8.17;4.83;;;20.90;38.30;;;;;;5058054;28;20226;-55
2023/07/07 00:55:11;;;;;;;8.13;4.22;;;20.90;38.80;;;;;;5075698;28;20438;-57
2023/07/07 00:57:37;;;;;;;8.90;4.15;;;20.90;39.00;;;;;;5076087;28;20164;-54
2023/07/07 01:00:03;;;;;;;5.63;4.00;;;20.90;38.80;;;;;;5075646;28;20675;-57
2023/07/07 01:02:29;;;;;;;7.75;4.40;;;20.80;39.10;;;;;;5075563;28;20168;-55
2023/07/07 01:04:59;;;;;;;5.00;4.00;;;20.80;39.00;;;;;;5075640;28;20237;-54
2023/07/07 01:07:31;;;;;;;5.25;4.20;;;20.80;39.00;;;;;;5075526;28;20482;-57
2023/07/07 01:09:57;;;;;;;5.70;4.07;;;20.70;39.40;;;;;;5075100;28;20204;-56
2023/07/07 01:12:23;;;;;;;4.65;3.75;;;20.70;39.40;;;;;;5075438;28;20282;-54
2023/07/07 01:14:51;;;;;;;5.30;4.57;;;20.70;39.40;;;;;;5075280;28;20656;-55
2023/07/07 01:17:28;;;;;;;5.63;5.03;;;20.60;39.50;;;;;;5075339;28;20394;-58
2023/07/07 01:20:12;;;;;;;6.10;3.97;;;20.60;39.70;;;;;;5074922;28;20196;-53
2023/07/07 01:22:53;;;;;;;6.18;4.30;;;20.40;39.70;;;;;;5075502;28;20285;-57
2023/07/07 01:25:37;;;;;;;15.85;4.40;;;20.40;40.00;;;;;;5075200;28;20701;-53
2023/07/07 01:28:24;;;;;;;6.28;4.68;;;20.30;40.20;;;;;;5075065;28;20671;-56
2023/07/07 01:31:01;;;;;;;6.50;5.07;;;20.20;40.30;;;;;;5074756;28;20679;-54
2023/07/07 01:33:30;;;;;;;7.40;4.45;;;20.20;40.40;;;;;;5075141;28;20237;-55
2023/07/07 01:35:56;;;;;;;5.30;4.40;;;20.10;40.20;;;;;;5075230;28;20201;-54
2023/07/07 01:38:37;;;;;;;6.60;4.77;;;20.10;40.30;;;;;;5074919;28;20195;-54
2023/07/07 01:41:12;;;;;;;8.55;3.90;;;20.10;40.40;;;;;;5074889;28;20157;-58
2023/07/07 01:43:45;;;;;;;6.22;4.40;;;20.10;40.40;;;;;;5075173;28;20210;-54
2023/07/07 01:46:27;;;;;;;5.57;4.55;;;20.00;40.00;;;;;;5074845;28;20169;-52
2023/07/07 01:49:12;;;;;;;4.93;4.40;;;20.00;40.00;;;;;;5074889;28;20265;-57
2023/07/07 01:51:50;;;;;;;5.47;4.75;;;19.90;40.00;;;;;;5074545;28;20179;-55
2023/07/07 01:54:18;;;;;;;5.65;4.80;;;19.90;40.20;;;;;;5074870;28;20202;-58
2023/07/07 01:56:46;;;;;;;7.55;4.40;;;19.80;40.20;;;;;;5074606;28;20248;-55
2023/07/07 01:59:13;;;;;;;7.43;4.45;;;19.70;40.20;;;;;;5073466;28;20660;-54
2023/07/07 02:01:39;;;;;;;9.13;5.07;;;19.70;40.30;;;;;;5074477;28;20791;-57
2023/07/07 02:04:05;;;;;;;7.20;4.60;;;19.70;40.50;;;;;;5074403;28;20786;-56
2023/07/07 02:06:31;;;;;;;6.70;4.97;;;19.70;40.60;;;;;;5074413;28;20408;-55
2023/07/07 02:08:56;;;;;;;5.80;5.20;;;19.70;40.70;;;;;;5074263;28;20188;-55
2023/07/07 02:11:22;;;;;;;7.73;4.50;;;19.70;40.60;;;;;;5074113;28;20165;-57
2023/07/07 02:13:48;;;;;;;5.60;4.87;;;19.70;40.60;;;;;;5073079;28;20330;-54
2023/07/07 02:16:14;;;;;;;5.60;4.20;;;19.70;40.50;;;;;;5074137;28;20275;-55
2023/07/07 02:18:41;;;;;;;6.00;5.40;;;19.60;40.40;;;;;;5074055;28;20204;-58
2023/07/07 02:21:07;;;;;;;4.97;4.35;;;19.60;40.50;;;;;;5074131;28;20194;-57
2023/07/07 02:23:33;;;;;;;6.50;5.30;;;19.50;40.70;;;;;;5074149;28;20176;-55
2023/07/07 02:25:59;;;;;;;6.90;4.60;;;19.50;40.90;;;;;;5074342;28;20173;-55
2023/07/07 02:28:25;;;;;;;7.53;6.00;;;19.50;40.80;;;;;;5074193;28;20580;-57
2023/07/07 02:30:53;;;;;;;6.03;5.20;;;19.50;40.90;;;;;;5073696;28;20901;-57
2023/07/07 02:33:19;;;;;;;5.32;4.30;;;19.50;40.80;;;;;;5073752;28;20169;-54
2023/07/07 02:35:48;;;;;;;5.70;4.70;;;19.50;40.70;;;;;;5073798;28;20254;-55
2023/07/07 02:38:14;;;;;;;5.80;4.68;;;19.40;40.50;;;;;;5072457;28;20203;-54
2023/07/07 02:40:41;;;;;;;6.32;5.68;;;19.30;40.60;;;;;;5073698;28;20200;-57
2023/07/07 02:43:07;;;;;;;9.00;6.03;;;19.30;40.80;;;;;;5073794;28;20260;-57
2023/07/07 02:45:33;;;;;;;6.53;5.93;;;19.30;40.90;;;;;;5073696;28;20200;-53
2023/07/07 02:47:59;;;;;;;6.63;4.68;;;19.20;40.90;;;;;;5073829;28;20173;-56
2023/07/07 02:50:24;;;;;;;5.33;4.67;;;19.20;41.20;;;;;;5073555;28;20183;-58
2023/07/07 02:52:50;;;;;;;5.73;4.90;;;19.10;41.20;;;;;;5073498;28;20525;-56
2023/07/07 02:55:16;;;;;;;6.37;4.60;;;19.10;41.10;;;;;;5073586;28;20204;-55
2023/07/07 02:57:42;;;;;;;6.43;4.70;;;19.10;41.10;;;;;;5073681;28;20410;-57
2023/07/07 03:00:09;;;;;;;6.47;4.90;;;19.10;41.40;;;;;;5073076;28;20655;-55
2023/07/07 03:02:35;;;;;;;6.10;4.88;;;19.00;41.40;;;;;;5073544;28;20181;-56
2023/07/07 03:05:01;;;;;;;7.18;4.30;;;18.90;41.50;;;;;;5073509;28;20329;-56
2023/07/07 03:07:27;;;;;;;5.53;5.00;;;18.90;41.30;;;;;;5073688;28;20226;-56
2023/07/07 03:09:53;;;;;;;8.03;5.67;;;18.90;41.40;;;;;;5072907;28;20958;-55
2023/07/07 03:12:18;;;;;;;8.37;5.33;;;18.90;41.50;;;;;;5073084;28;20200;-59
2023/07/07 03:14:44;;;;;;;6.40;4.63;;;18.80;41.50;;;;;;5073026;28;20184;-55
2023/07/07 03:17:10;;;;;;;6.10;5.50;;;18.80;41.50;;;;;;5072886;28;20203;-56
2023/07/07 03:19:36;;;;;;;7.30;5.30;;;18.80;41.60;;;;;;5072773;28;20189;-56
2023/07/07 03:22:01;;;;;;;7.30;5.70;;;18.70;41.60;;;;;;5073010;28;20161;-55
2023/07/07 03:24:27;;;;;;;7.67;5.50;;;18.70;41.60;;;;;;5072967;28;20648;-55
2023/07/07 03:26:53;;;;;;;9.40;5.20;;;18.60;41.60;;;;;;5072908;28;20571;-56
2023/07/07 03:29:18;;;;;;;8.07;4.87;;;18.60;42.40;;;;;;5072467;28;20180;-56
2023/07/07 03:31:44;;;;;;;8.40;5.67;;;18.60;41.80;;;;;;5072705;28;20175;-58
2023/07/07 03:34:10;;;;;;;6.30;5.43;;;18.50;42.10;;;;;;5072612;28;20194;-58
2023/07/07 03:36:37;;;;;;;6.20;5.33;;;18.60;42.10;;;;;;5072709;28;20259;-55
2023/07/07 03:39:04;;;;;;;8.85;6.00;;;18.60;42.10;;;;;;5072443;28;20191;-54
2023/07/07 03:41:30;;;;;;;7.50;5.13;;;18.60;42.10;;;;;;5072543;28;20329;-59
2023/07/07 03:43:56;;;;;;;5.75;4.65;;;18.70;42.10;;;;;;5072499;28;20218;-55
2023/07/07 03:46:25;;;;;;;6.15;5.22;;;18.70;42.10;;;;;;5072425;28;20514;-55
2023/07/07 03:48:53;;;;;;;8.68;6.05;;;18.80;41.90;;;;;;5072328;28;20189;-57
2023/07/07 03:51:19;;;;;;;6.13;4.90;;;18.80;41.90;;;;;;5072305;28;20207;-55
2023/07/07 03:53:48;;;;;;;8.40;5.57;;;18.80;41.90;;;;;;5072500;28;20211;-54
2023/07/07 03:56:13;;;;;;;6.88;4.80;;;18.80;42.00;;;;;;5071016;28;20673;-58
2023/07/07 03:58:40;;;;;;;8.53;5.47;;;18.80;42.00;;;;;;5072216;28;20208;-54
2023/07/07 04:01:09;;;;;;;6.47;5.70;;;18.80;42.40;;;;;;5070726;28;20431;-56
2023/07/07 04:03:35;;;;;;;6.20;5.57;;;18.80;42.30;;;;;;5072578;28;20183;-58
2023/07/07 04:06:01;;;;;;;6.90;5.27;;;18.80;42.30;;;;;;5072404;28;20172;-58
2023/07/07 04:08:27;;;;;;;6.13;4.90;;;18.90;42.40;;;;;;5072205;28;20465;-56
2023/07/07 04:11:09;;;;;;;7.47;5.87;;;18.90;42.50;;;;;;5072026;28;20533;-56
2023/07/07 04:13:37;;;;;;;7.90;5.30;;;19.00;42.30;;;;;;5071995;28;21017;-54
2023/07/07 04:16:04;;;;;;;9.60;5.80;;;19.10;42.30;;;;;;5071981;28;20226;-56
2023/07/07 04:18:31;;;;;;;11.98;5.70;;;19.20;42.30;;;;;;5072249;28;20287;-59
2023/07/07 04:21:02;;;;;;;6.90;4.95;;;19.30;42.50;;;;;;5071620;28;20169;-56
2023/07/07 04:23:28;;;;;;;6.32;4.93;;;19.40;42.20;;;;;;5072002;28;20543;-54
2023/07/07 04:25:54;;;;;;;6.33;4.63;;;19.40;41.90;;;;;;5071947;28;20172;-56
2023/07/07 04:28:20;;;;;;;10.73;4.60;;;19.60;41.80;;;;;;5071863;28;20495;-54
2023/07/07 04:30:51;;;;;;;12.70;5.82;;;19.70;41.60;;;;;;5070465;28;20259;-59
2023/07/07 04:33:17;;;;;;;8.07;4.40;;;19.90;41.10;;;;;;5071931;28;20180;-56
2023/07/07 04:35:42;;;;;;;9.00;5.07;;;20.00;40.60;;;;;;5071836;28;20254;-54
2023/07/07 04:38:08;;;;;;;7.33;4.23;;;20.00;40.40;;;;;;5071836;28;20192;-56
2023/07/07 04:40:34;;;;;;;9.30;5.53;;;20.10;40.10;;;;;;5071638;28;20253;-58
2023/07/07 04:42:59;;;;;;;7.50;4.30;;;20.20;40.20;;;;;;5072032;28;20169;-59
2023/07/07 04:45:25;;;;;;;8.70;4.20;;;20.30;40.20;;;;;;5071996;28;20636;-56
2023/07/07 04:47:51;;;;;;;6.13;4.63;;;20.40;40.00;;;;;;5071867;28;20255;-58
2023/07/07 04:50:17;;;;;;;5.47;4.77;;;20.50;39.90;;;;;;5071588;28;20951;-54
2023/07/07 04:52:42;;;;;;;9.20;4.47;;;20.60;39.70;;;;;;5072071;28;20172;-58
2023/07/07 04:55:09;;;;;;;6.73;5.53;;;20.60;39.30;;;;;;5071669;28;20525;-59
2023/07/07 04:57:34;;;;;;;12.23;5.30;;;20.80;39.10;;;;;;5071915;28;20580;-54
2023/07/07 05:00:03;;;;;;;7.47;4.87;;;20.90;38.80;;;;;;5071431;28;20185;-55
2023/07/07 05:02:28;;;;;;;10.10;5.95;;;20.80;38.60;;;;;;5071652;28;20180;-56
2023/07/07 05:04:54;;;;;;;7.50;4.53;;;20.80;38.60;;;;;;5072033;28;20268;-56
2023/07/07 05:07:20;;;;;;;7.43;4.43;;;20.90;38.60;;;;;;5071610;28;20183;-57
2023/07/07 05:09:45;;;;;;;6.37;5.50;;;21.00;38.60;;;;;;5071491;28;20197;-56
2023/07/07 05:12:13;;;;;;;8.57;5.50;;;21.00;38.70;;;;;;5071720;28;20169;-54
2023/07/07 05:14:38;;;;;;;8.15;5.10;;;21.00;38.80;;;;;;5071492;28;20223;-56
2023/07/07 05:17:04;;;;;;;5.70;4.23;;;21.10;38.70;;;;;;5071774;28;20177;-59
2023/07/07 05:19:30;;;;;;;5.00;4.20;;;21.20;38.80;;;;;;5071196;28;20312;-56
2023/07/07 05:21:56;;;;;;;6.43;5.00;;;21.20;38.60;;;;;;5071499;28;20531;-55
2023/07/07 05:24:22;;;;;;;6.20;4.80;;;21.30;38.30;;;;;;5071369;28;20510;-58
2023/07/07 05:26:47;;;;;;;6.70;5.23;;;21.40;38.60;;;;;;5071685;28;20177;-55
2023/07/07 05:29:13;;;;;;;6.80;4.30;;;21.50;38.50;;;;;;5071223;28;20250;-56
2023/07/07 05:31:40;;;;;;;6.80;4.40;;;21.60;38.30;;;;;;5071314;28;20633;-56
2023/07/07 05:34:06;;;;;;;7.78;5.50;;;21.70;38.20;;;;;;5072685;28;20262;-54
2023/07/07 05:36:32;;;;;;;6.30;4.77;;;21.80;38.10;;;;;;5074973;28;20201;-57
2023/07/07 05:38:58;;;;;;;5.60;4.30;;;21.90;37.70;;;;;;5074654;28;20254;-56
2023/07/07 05:41:24;;;;;;;8.60;5.47;;;21.90;37.60;;;;;;5074700;28;20169;-56
2023/07/07 05:43:49;;;;;;;7.33;4.50;;;21.90;37.30;;;;;;5074686;28;20895;-58
2023/07/07 05:46:16;;;;;;;8.27;5.23;;;22.00;37.60;;;;;;5074874;28;20465;-56
2023/07/07 05:48:42;;;;;;;6.37;4.63;;;22.10;37.40;;;;;;5074935;28;20193;-54
2023/07/07 05:51:12;;;;;;;7.70;5.37;;;22.20;37.50;;;;;;5074443;28;20512;-57
2023/07/07 05:53:40;;;;;;;6.00;4.40;;;22.30;37.20;;;;;;5074963;28;20411;-58
2023/07/07 05:56:12;;;;;;;6.10;4.83;;;22.40;36.80;;;;;;5074542;28;20442;-55
2023/07/07 05:58:37;;;;;;;7.77;5.50;;;22.50;36.90;;;;;;5074568;28;20427;-55
2023/07/07 06:01:03;;;;;;;6.13;5.07;;;22.60;36.90;;;;;;5074658;28;20403;-58
2023/07/07 06:03:30;;;;;;;7.03;4.60;;;22.60;36.90;;;;;;5074944;28;20525;-56
2023/07/07 06:05:56;;;;;;;6.83;5.10;;;22.80;36.80;;;;;;5074602;28;20502;-56
2023/07/07 06:08:21;;;;;;;7.77;4.27;;;22.80;36.70;;;;;;5074343;28;20515;-58
2023/07/07 06:10:48;;;;;;;12.67;6.00;;;22.90;36.70;;;;;;5074185;28;20180;-56
2023/07/07 06:13:17;;;;;;;4.03;3.17;;;23.10;36.70;;;;;;5074370;28;20188;-56
2023/07/07 06:15:46;;;;;;;4.97;4.03;;;23.20;36.40;;;;;;5074258;28;20462;-58
2023/07/07 06:18:12;;;;;;;7.40;4.70;;;23.30;36.00;;;;;;5074185;28;20427;-54
2023/07/07 06:20:37;;;;;;;9.10;4.50;;;23.40;36.10;;;;;;5074208;28;20407;-55
2023/07/07 06:23:04;;;;;;;5.87;4.20;;;23.40;35.50;;;;;;5074426;28;20176;-57
2023/07/07 06:25:30;;;;;;;9.33;4.73;;;23.50;36.00;;;;;;5074076;28;20739;-55
2023/07/07 06:27:56;;;;;;;6.93;5.60;;;23.60;35.70;;;;;;5074022;28;20493;-57
2023/07/07 06:30:22;;;;;;;9.90;4.73;;;23.70;35.40;;;;;;5073859;28;20181;-56
2023/07/07 06:32:47;;;;;;;8.90;5.63;;;23.80;35.60;;;;;;5073928;28;20207;-53
2023/07/07 06:35:13;;;;;;;5.90;4.70;;;23.90;35.00;;;;;;5073583;28;20483;-57
2023/07/07 06:37:39;;;;;;;5.67;3.40;;;24.00;34.80;;;;;;5072595;28;20321;-58
2023/07/07 06:40:05;;;;;;;5.43;4.00;;;24.10;34.70;;;;;;5072140;28;20279;-54
2023/07/07 06:42:31;;;;;;;6.77;3.73;;;24.20;34.50;;;;;;5073891;28;20251;-58
2023/07/07 06:44:57;;;;;;;8.30;5.47;;;24.30;34.70;;;;;;5073700;28;20528;-54
2023/07/07 06:47:23;;;;;;;6.97;3.80;;;24.40;34.20;;;;;;5073973;28;20544;-55
2023/07/07 06:49:49;;;;;;;5.17;3.73;;;24.50;33.40;;;;;;5073227;28;20208;-56
2023/07/07 06:52:14;;;;;;;5.50;3.60;;;24.50;33.70;;;;;;5072305;28;20425;-55
2023/07/07 06:54:40;;;;;;;5.30;4.50;;;24.70;34.10;;;;;;5073356;28;20207;-55
2023/07/07 06:57:06;;;;;;;5.20;3.93;;;24.80;33.80;;;;;;5073564;28;20168;-56
2023/07/07 06:59:32;;;;;;;4.70;3.57;;;24.90;33.50;;;;;;5073195;28;20216;-54
2023/07/07 07:01:58;;;;;;;6.53;4.13;;;25.00;33.20;;;;;;5073341;28;20953;-56
2023/07/07 07:04:24;;;;;;;5.87;4.20;;;25.10;33.30;;;;;;5073277;28;20435;-55
2023/07/07 07:06:50;;;;;;;9.07;4.70;;;25.30;32.80;;;;;;5073261;28;20217;-54
2023/07/07 07:09:15;;;;;;;6.20;4.50;;;25.40;32.40;;;;;;5073120;28;20203;-53
2023/07/07 07:11:41;;;;;;;6.83;4.87;;;25.50;32.70;;;;;;5073434;28;20760;-58
2023/07/07 07:14:07;;;;;;;6.00;4.33;;;25.50;32.30;;;;;;5073012;28;20427;-58
2023/07/07 07:16:32;;;;;;;4.90;4.27;;;25.70;32.00;;;;;;5072943;28;20168;-54
2023/07/07 07:18:58;;;;;;;8.47;3.93;;;25.70;30.90;;;;;;5072830;28;20211;-55
2023/07/07 07:21:24;;;;;;;7.23;4.23;;;25.80;31.20;;;;;;5073016;28;20176;-57
2023/07/07 07:23:50;;;;;;;5.90;4.30;;;25.90;32.00;;;;;;5072890;28;20196;-55
2023/07/07 07:26:17;;;;;;;5.30;4.20;;;26.10;31.70;;;;;;5072940;28;20173;-56
2023/07/07 07:28:43;;;;;;;5.63;3.47;;;26.10;31.40;;;;;;5072778;28;20819;-54
2023/07/07 07:31:09;;;;;;;6.23;4.20;;;26.20;30.70;;;;;;5072521;28;20413;-57
2023/07/07 07:33:34;;;;;;;7.37;4.50;;;26.20;32.50;;;;;;5072950;28;20176;-55
2023/07/07 07:36:00;;;;;;;9.80;4.77;;;26.30;32.00;;;;;;5072945;28;20481;-55
2023/07/07 07:38:26;;;;;;;7.53;4.83;;;26.50;31.30;;;;;;5072514;28;20702;-55
2023/07/07 07:40:53;;;;;;;6.60;4.13;;;26.60;31.70;;;;;;5072412;28;20161;-54
2023/07/07 07:43:20;;;;;;;4.80;3.80;;;26.70;32.00;;;;;;5072678;28;20180;-57
2023/07/07 07:45:46;;;;;;;4.87;3.73;;;26.90;31.50;;;;;;5072500;28;20410;-58
2023/07/07 07:48:11;;;;;;;5.57;3.90;;;27.00;31.10;;;;;;5072320;28;20828;-53
2023/07/07 07:50:37;;;;;;;5.97;4.17;;;27.20;31.70;;;;;;5072460;28;20407;-57
2023/07/07 07:53:03;;;;;;;8.30;3.80;;;27.20;31.00;;;;;;5072373;28;20524;-54
2023/07/07 07:55:29;;;;;;;7.07;4.43;;;27.30;30.90;;;;;;5072327;28;20445;-54
2023/07/07 07:57:55;;;;;;;5.00;4.10;;;27.40;31.00;;;;;;5071671;28;20256;-56
2023/07/07 08:00:21;;;;;;;5.60;3.53;;;27.50;30.40;;;;;;5072341;28;20403;-53
2023/07/07 08:02:48;;;;;;;10.00;4.80;;;27.40;29.20;;;;;;5072256;28;20418;-57
2023/07/07 08:05:14;;;;;;;4.50;3.63;;;27.40;29.90;;;;;;5072184;28;20417;-57
2023/07/07 08:07:40;;;;;;;6.00;3.80;;;27.50;28.90;;;;;;5070941;28;20919;-55
2023/07/07 08:10:07;;;;;;;4.37;3.63;;;27.50;29.50;;;;;;5071881;28;20427;-56
2023/07/07 08:12:33;;;;;;;8.50;3.80;;;27.70;30.30;;;;;;5072112;28;20176;-54
2023/07/07 08:14:59;;;;;;;6.10;4.57;;;27.70;28.90;;;;;;5072074;28;20449;-53
2023/07/07 08:17:26;;;;;;;5.57;3.40;;;27.90;28.30;;;;;;5072100;28;20448;-56
2023/07/07 08:19:54;;;;;;;4.20;3.53;;;28.00;29.70;;;;;;5071736;28;20430;-54
2023/07/07 08:22:24;;;;;;;6.33;4.07;;;28.10;29.10;;;;;;5071980;28;20181;-52
2023/07/07 08:24:53;;;;;;;4.90;3.47;;;28.20;30.30;;;;;;5072118;28;20498;-56
2023/07/07 08:27:20;;;;;;;4.50;3.60;;;28.40;29.40;;;;;;5072058;28;20476;-57
2023/07/07 08:29:46;;;;;;;4.87;3.70;;;28.60;29.40;;;;;;5071903;28;20521;-53
2023/07/07 08:32:15;;;;;;;5.33;3.97;;;28.70;27.60;;;;;;5072009;28;20782;-56
2023/07/07 08:34:41;;;;;;;5.83;4.30;;;28.90;26.70;;;;;;5071762;28;20873;-54
2023/07/07 08:37:07;;;;;;;8.20;4.10;;;28.90;26.30;;;;;;5072147;28;20403;-54
2023/07/07 08:39:33;;;;;;;4.57;3.80;;;28.80;26.00;;;;;;5071706;28;20488;-56
2023/07/07 08:42:30;;;;;;;6.00;3.70;;;28.90;26.90;;;;;;5071762;28;20410;-56
2023/07/07 08:44:58;;;;;;;7.43;3.47;;;28.90;27.40;;;;;;5071896;28;20403;-56
2023/07/07 08:47:42;;;;;;;8.67;3.83;;;29.00;28.40;;;;;;5072093;28;20415;-53
2023/07/07 08:50:22;;;;;;;5.33;3.70;;;29.20;27.70;;;;;;5071436;28;20941;-54
2023/07/07 08:53:24;;;;;;;8.20;3.73;;;29.40;26.50;;;;;;5072033;28;20411;-54
2023/07/07 08:56:03;;;;;;;9.80;4.03;;;29.40;26.10;;;;;;5071768;28;20783;-53
2023/07/07 08:58:36;;;;;;;5.53;3.60;;;29.50;27.10;;;;;;5071742;28;20426;-55
2023/07/07 09:01:31;;;;;;;7.97;3.80;;;29.60;25.70;;;;;;5071494;28;20395;-53
2023/07/07 09:04:05;;;;;;;6.27;3.30;;;29.70;24.60;;;;;;5071835;28;20403;-53
2023/07/07 09:07:19;;;;;;;8.80;3.50;;;29.70;25.60;;;;;;5071759;28;20407;-54
2023/07/07 09:10:04;;;;;;;4.47;3.30;;;29.80;25.50;;;;;;5074897;28;20461;-54
2023/07/07 09:13:01;;;;;;;8.57;3.23;;;29.80;24.30;;;;;;5075555;28;20402;-53
2023/07/07 09:15:35;;;;;;;4.77;3.30;;;29.90;23.70;;;;;;5074810;28;20462;-53
2023/07/07 09:18:12;;;;;;;10.10;3.07;;;30.00;24.40;;;;;;5075560;28;20425;-56
2023/07/07 09:20:38;;;;;;;6.87;3.90;;;30.10;26.00;;;;;;5075155;28;20430;-53
2023/07/07 09:23:17;;;;;;;4.97;3.33;;;30.20;24.70;;;;;;5075511;28;20441;-55
2023/07/07 09:26:10;;;;;;;6.50;3.73;;;30.20;22.00;;;;;;5075211;28;20298;-56
2023/07/07 09:28:45;;;;;;;5.80;3.33;;;30.30;22.90;;;;;;5074725;28;20446;-54
2023/07/07 09:31:31;;;;;;;8.27;3.80;;;30.40;22.10;;;;;;5074923;28;20925;-54
2023/07/07 09:33:59;;;;;;;3.90;3.10;;;30.40;22.60;;;;;;5075068;28;20497;-54
2023/07/07 09:36:25;;;;;;;4.67;2.50;;;30.50;21.50;;;;;;5074775;28;20486;-56
2023/07/07 09:39:01;;;;;;;4.90;3.80;;;30.50;21.80;;;;;;5075023;28;20457;-53
2023/07/07 09:41:45;;;;;;;4.70;3.17;;;30.60;22.20;;;;;;5073473;28;20176;-55
2023/07/07 09:44:49;;;;;;;3.87;2.90;;;30.60;22.10;;;;;;5075164;28;20417;-53
2023/07/07 09:47:26;;;;;;;9.70;2.87;;;30.80;22.40;;;;;;5074886;28;20402;-55
2023/07/07 09:50:10;;;;;;;3.57;2.60;;;30.80;18.40;;;;;;5074470;28;20430;-53
2023/07/07 09:52:50;;;;;;;4.83;3.67;;;30.80;19.20;;;;;;5074785;28;20410;-54
2023/07/07 09:55:21;;;;;;;3.93;2.63;;;30.90;19.50;;;;;;5073306;28;20447;-56
2023/07/07 09:58:12;;;;;;;7.10;3.10;;;30.80;17.30;;;;;;5074531;28;20403;-53
2023/07/07 10:00:41;;;;;;;5.37;3.13;;;30.80;18.70;;;;;;5074555;28;20494;-53
2023/07/07 10:03:25;;;;;;;4.97;3.63;;;30.70;17.40;;;;;;5074542;28;20399;-54
2023/07/07 10:05:53;;;;;;;8.00;3.40;;;30.70;19.50;;;;;;5074811;28;20410;-54
2023/07/07 10:08:19;;;;;;;4.07;2.93;;;30.80;18.70;;;;;;5074377;28;20918;-55
2023/07/07 10:10:57;;;;;;;4.63;3.00;;;30.90;19.60;;;;;;5074456;28;20438;-54
2023/07/07 10:13:23;;;;;;;4.67;2.63;;;30.90;20.00;;;;;;5074316;28;20578;-54
2023/07/07 10:16:04;;;;;;;3.53;2.47;;;31.00;19.40;;;;;;5074121;28;20520;-57
2023/07/07 10:18:32;;;;;;;4.37;3.00;;;31.10;18.80;;;;;;5074260;28;20433;-54
2023/07/07 10:21:06;;;;;;;5.13;2.77;;;31.10;18.30;;;;;;5071955;28;20434;-54
2023/07/07 10:23:32;;;;;;;4.43;3.20;;;31.10;19.80;;;;;;5074180;28;20990;-54
2023/07/07 10:25:57;;;;;;;3.77;2.87;;;31.30;20.40;;;;;;5072913;28;20441;-54
2023/07/07 10:28:24;;;;;;;5.80;3.37;;;31.40;22.30;;;;;;5073885;28;20201;-53
2023/07/07 10:30:51;;;;;;;5.00;3.53;;;31.50;20.20;;;;;;5073971;28;20180;-55
2023/07/07 10:33:21;;;;;;;5.73;3.47;;;31.60;19.80;;;;;;5073822;28;20457;-56
2023/07/07 10:35:48;;;;;;;5.37;2.80;;;31.70;19.60;;;;;;5074035;28;20500;-54
2023/07/07 10:38:14;;;;;;;5.80;3.17;;;31.70;18.30;;;;;;5072493;28;20791;-54
2023/07/07 10:40:42;;;;;;;5.50;3.43;;;31.80;18.90;;;;;;5073738;28;20929;-54
2023/07/07 10:43:12;;;;;;;5.37;3.43;;;31.80;19.10;;;;;;5073668;28;20790;-53
2023/07/07 10:45:42;;;;;;;3.80;2.70;;;32.00;20.00;;;;;;5073843;28;20494;-56
2023/07/07 10:48:12;;;;;;;5.53;3.37;;;32.00;19.80;;;;;;5073768;28;20476;-54
2023/07/07 10:50:54;;;;;;;3.90;2.93;;;32.10;20.00;;;;;;5073408;28;20410;-56
2023/07/07 10:53:37;;;;;;;5.00;3.27;;;32.20;19.30;;;;;;5073475;28;20438;-55
2023/07/07 10:56:12;;;;;;;4.47;2.80;;;32.40;19.40;;;;;;5073496;28;20441;-54
2023/07/07 10:58:44;;;;;;;4.67;2.90;;;32.40;18.20;;;;;;5073504;28;20479;-56
2023/07/07 11:01:29;;;;;;;7.40;3.90;;;32.50;19.00;;;;;;5073236;28;20410;-54
2023/07/07 11:04:29;;;;;;;3.87;3.17;;;32.70;18.70;;;;;;5073203;28;20747;-56
2023/07/07 11:07:22;;;;;;;3.90;3.20;;;32.80;18.60;;;;;;5073295;28;20410;-57
2023/07/07 11:09:53;;;;;;;10.80;4.40;;;33.00;20.00;;;;;;5066949;28;20453;-55
2023/07/07 11:12:28;;;;;;;6.40;3.00;;;33.10;21.00;;;;;;5065403;28;20409;-57
2023/07/07 11:15:32;;;;;;;5.37;3.37;;;33.30;20.40;;;;;;5073291;28;20458;-54
2023/07/07 11:18:26;;;;;;;3.80;2.90;;;33.40;19.00;;;;;;5073010;28;20406;-54
2023/07/07 11:21:09;;;;;;;4.37;3.30;;;33.30;18.10;;;;;;5072756;28;20793;-56
2023/07/07 11:24:02;;;;;;;7.80;3.10;;;33.30;19.80;;;;;;5073173;28;20403;-55
2023/07/07 11:26:56;;;;;;;4.40;3.33;;;33.30;19.80;;;;;;5072423;28;20398;-57
2023/07/07 11:29:42;;;;;;;4.93;3.07;;;33.30;19.20;;;;;;5072570;28;20427;-55
2023/07/07 11:32:28;;;;;;;7.63;2.63;;;33.40;18.50;;;;;;5070307;28;20546;-57
2023/07/07 11:35:26;;;;;;;7.13;4.27;;;33.30;18.60;;;;;;5072571;28;20438;-54
2023/07/07 11:38:03;;;;;;;6.30;3.20;;;33.20;19.20;;;;;;5071228;28;20901;-56
2023/07/07 11:40:58;;;;;;;7.53;3.30;;;33.20;19.10;;;;;;5072342;28;20410;-57
2023/07/07 11:43:44;;;;;;;4.53;3.47;;;33.00;17.30;;;;;;5072748;28;20403;-54
2023/07/07 11:46:35;;;;;;;5.53;3.47;;;32.90;17.60;;;;;;5072292;28;20948;-56
2023/07/07 11:49:21;;;;;;;5.10;2.90;;;32.90;18.30;;;;;;5072404;28;20517;-56
2023/07/07 11:51:59;;;;;;;4.10;3.00;;;32.90;17.50;;;;;;5072415;28;20410;-57
2023/07/07 11:54:51;;;;;;;6.97;2.83;;;33.00;18.30;;;;;;5072465;28;20453;-54
2023/07/07 11:57:45;;;;;;;4.80;3.33;;;33.10;17.90;;;;;;5072437;28;20468;-56
2023/07/07 12:00:32;;;;;;;6.13;3.30;;;33.20;17.80;;;;;;5071987;28;20929;-54
2023/07/07 12:03:13;;;;;;;5.07;3.43;;;33.30;17.90;;;;;;5072318;28;20399;-56
2023/07/07 12:05:40;;;;;;;5.37;3.10;;;33.40;19.60;;;;;;5072401;28;20509;-56
2023/07/07 12:08:15;;;;;;;4.77;3.10;;;33.60;18.60;;;;;;5072202;28;20414;-57
2023/07/07 12:10:56;;;;;;;4.40;2.77;;;33.70;16.70;;;;;;5072362;28;20414;-54
2023/07/07 12:13:34;;;;;;;7.50;3.20;;;33.50;16.70;;;;;;5072132;28;20790;-54
2023/07/07 12:16:21;;;;;;;4.47;3.20;;;33.50;18.40;;;;;;5072077;28;20525;-55
2023/07/07 12:18:53;;;;;;;4.60;3.00;;;33.60;17.70;;;;;;5072287;28;20437;-56
2023/07/07 12:21:29;;;;;;;5.40;3.50;;;33.60;17.40;;;;;;5071941;28;20395;-57
2023/07/07 12:24:04;;;;;;;3.73;3.20;;;33.90;18.00;;;;;;5070948;28;20544;-54
2023/07/07 12:26:41;;;;;;;4.60;3.57;;;34.00;17.50;;;;;;5072351;28;20834;-56
2023/07/07 12:29:10;;;;;;;7.43;3.57;;;34.10;18.60;;;;;;5071764;28;20435;-56
2023/07/07 12:31:36;;;;;;;4.37;3.10;;;34.20;18.60;;;;;;5071911;28;20875;-54
2023/07/07 12:34:38;;;;;;;6.37;3.40;;;34.10;18.40;;;;;;5071892;28;20410;-54
2023/07/07 12:37:18;;;;;;;4.83;3.30;;;34.00;18.00;;;;;;5071573;28;20499;-55
2023/07/07 12:39:59;;;;;;;6.13;2.90;;;34.00;18.00;;;;;;5071498;28;20455;-54
2023/07/07 12:42:28;;;;;;;5.00;3.70;;;34.00;17.80;;;;;;5072534;28;20486;-55
2023/07/07 12:45:15;;;;;;;5.20;3.30;;;33.80;16.50;;;;;;5075955;28;20972;-55
2023/07/07 12:47:42;;;;;;;3.57;2.73;;;33.70;16.80;;;;;;5075736;28;20964;-56
2023/07/07 12:50:28;;;;;;;4.40;3.33;;;33.70;18.00;;;;;;5075494;28;20410;-57
2023/07/07 12:53:01;;;;;;;6.97;3.23;;;33.90;19.20;;;;;;5076041;28;20754;-57
2023/07/07 12:55:29;;;;;;;4.30;3.07;;;34.00;19.10;;;;;;5075903;28;20602;-54
2023/07/07 12:58:00;;;;;;;3.80;3.13;;;34.00;18.70;;;;;;5075925;28;20400;-55
2023/07/07 13:00:32;;;;;;;6.00;3.70;;;34.30;18.20;;;;;;5075337;28;20403;-56
2023/07/07 13:03:09;;;;;;;4.90;3.47;;;34.30;17.60;;;;;;5075825;28;20494;-56
2023/07/07 13:05:44;;;;;;;5.90;3.30;;;34.40;19.10;;;;;;5075741;28;20491;-52